sensor_id;sensor_type;location;lat;lon;timestamp;P1;durP1;ratioP1;P2;durP2;ratioP2
41711;SDS011;27399;51.516;13.670;2023-02-18T00:00:14;4.22;;;1.10;;
41711;SDS011;27399;51.516;13.670;2023-02-18T00:02:42;8.25;;;1.13;;
41711;SDS011;27399;51.516;13.670;2023-02-18T00:05:09;6.45;;;0.88;;
41711;SDS011;27399;51.516;13.670;2023-02-18T00:07:35;2.72;;;0.88;;
41711;SDS011;27399;51.516;13.670;2023-02-18T00:10:03;4.97;;;1.05;;
41711;SDS011;27399;51.516;13.670;2023-02-18T00:12:30;5.75;;;1.00;;
41711;SDS011;27399;51.516;13.670;2023-02-18T00:14:56;2.35;;;0.80;;
41711;SDS011;27399;51.516;13.670;2023-02-18T00:17:22;5.22;;;1.00;;
41711;SDS011;27399;51.516;13.670;2023-02-18T00:19:48;4.78;;;0.93;;
41711;SDS011;27399;51.516;13.670;2023-02-18T00:22:14;4.13;;;1.10;;
41711;SDS011;27399;51.516;13.670;2023-02-18T00:24:39;4.00;;;0.80;;
41711;SDS011;27399;51.516;13.670;2023-02-18T00:27:05;3.92;;;0.90;;
41711;SDS011;27399;51.516;13.670;2023-02-18T00:29:31;7.03;;;1.20;;
41711;SDS011;27399;51.516;13.670;2023-02-18T00:31:57;2.90;;;0.80;;
41711;SDS011;27399;51.516;13.670;2023-02-18T00:34:23;3.97;;;1.02;;
41711;SDS011;27399;51.516;13.670;2023-02-18T00:36:48;8.88;;;1.58;;
41711;SDS011;27399;51.516;13.670;2023-02-18T00:39:14;5.13;;;1.27;;
41711;SDS011;27399;51.516;13.670;2023-02-18T00:41:40;3.90;;;0.77;;
41711;SDS011;27399;51.516;13.670;2023-02-18T00:44:07;6.20;;;1.42;;
41711;SDS011;27399;51.516;13.670;2023-02-18T00:46:33;2.78;;;0.75;;
41711;SDS011;27399;51.516;13.670;2023-02-18T00:49:00;4.63;;;0.68;;
41711;SDS011;27399;51.516;13.670;2023-02-18T00:51:26;6.70;;;0.88;;
41711;SDS011;27399;51.516;13.670;2023-02-18T00:53:52;2.45;;;0.85;;
41711;SDS011;27399;51.516;13.670;2023-02-18T00:56:18;7.38;;;1.00;;
41711;SDS011;27399;51.516;13.670;2023-02-18T00:58:44;5.80;;;0.90;;
41711;SDS011;27399;51.516;13.670;2023-02-18T01:01:10;2.38;;;0.77;;
41711;SDS011;27399;51.516;13.670;2023-02-18T01:03:36;4.32;;;0.85;;
41711;SDS011;27399;51.516;13.670;2023-02-18T01:06:05;5.95;;;0.80;;
41711;SDS011;27399;51.516;13.670;2023-02-18T01:08:31;5.63;;;1.67;;
41711;SDS011;27399;51.516;13.670;2023-02-18T01:11:00;7.10;;;1.10;;
41711;SDS011;27399;51.516;13.670;2023-02-18T01:13:25;5.03;;;0.82;;
41711;SDS011;27399;51.516;13.670;2023-02-18T01:15:52;3.97;;;1.30;;
41711;SDS011;27399;51.516;13.670;2023-02-18T01:18:18;5.05;;;1.02;;
41711;SDS011;27399;51.516;13.670;2023-02-18T01:20:45;5.03;;;1.30;;
41711;SDS011;27399;51.516;13.670;2023-02-18T01:23:11;10.35;;;1.20;;
41711;SDS011;27399;51.516;13.670;2023-02-18T01:25:38;4.13;;;0.90;;
41711;SDS011;27399;51.516;13.670;2023-02-18T01:28:05;5.20;;;1.00;;
41711;SDS011;27399;51.516;13.670;2023-02-18T01:30:31;9.25;;;1.50;;
41711;SDS011;27399;51.516;13.670;2023-02-18T01:32:58;9.40;;;1.27;;
41711;SDS011;27399;51.516;13.670;2023-02-18T01:35:24;4.70;;;0.85;;
41711;SDS011;27399;51.516;13.670;2023-02-18T01:37:50;2.75;;;0.95;;
41711;SDS011;27399;51.516;13.670;2023-02-18T01:40:17;8.75;;;0.98;;
41711;SDS011;27399;51.516;13.670;2023-02-18T01:42:47;5.45;;;1.10;;
41711;SDS011;27399;51.516;13.670;2023-02-18T01:48:10;6.28;;;0.70;;
41711;SDS011;27399;51.516;13.670;2023-02-18T01:50:46;3.50;;;0.75;;
41711;SDS011;27399;51.516;13.670;2023-02-18T01:53:23;7.28;;;1.00;;
41711;SDS011;27399;51.516;13.670;2023-02-18T01:55:55;4.05;;;1.00;;
41711;SDS011;27399;51.516;13.670;2023-02-18T01:58:21;3.80;;;1.00;;
41711;SDS011;27399;51.516;13.670;2023-02-18T02:00:48;3.83;;;1.20;;
41711;SDS011;27399;51.516;13.670;2023-02-18T02:03:13;1.52;;;0.65;;
41711;SDS011;27399;51.516;13.670;2023-02-18T02:05:39;3.10;;;0.88;;
41711;SDS011;27399;51.516;13.670;2023-02-18T02:08:05;4.22;;;0.93;;
41711;SDS011;27399;51.516;13.670;2023-02-18T02:11:06;1.65;;;0.63;;
41711;SDS011;27399;51.516;13.670;2023-02-18T02:17:12;6.25;;;1.05;;
41711;SDS011;27399;51.516;13.670;2023-02-18T02:31:08;7.20;;;1.08;;
41711;SDS011;27399;51.516;13.670;2023-02-18T02:36:33;7.72;;;1.10;;
41711;SDS011;27399;51.516;13.670;2023-02-18T02:39:10;3.85;;;0.75;;
41711;SDS011;27399;51.516;13.670;2023-02-18T02:41:55;2.70;;;0.73;;
41711;SDS011;27399;51.516;13.670;2023-02-18T02:50:00;4.68;;;1.02;;
41711;SDS011;27399;51.516;13.670;2023-02-18T02:52:34;4.15;;;0.63;;
41711;SDS011;27399;51.516;13.670;2023-02-18T02:55:08;3.88;;;1.33;;
41711;SDS011;27399;51.516;13.670;2023-02-18T02:57:44;11.35;;;1.05;;
41711;SDS011;27399;51.516;13.670;2023-02-18T03:00:12;4.22;;;0.80;;
41711;SDS011;27399;51.516;13.670;2023-02-18T03:02:56;2.10;;;0.65;;
41711;SDS011;27399;51.516;13.670;2023-02-18T03:11:04;7.38;;;0.80;;
41711;SDS011;27399;51.516;13.670;2023-02-18T03:14:21;5.35;;;0.98;;
41711;SDS011;27399;51.516;13.670;2023-02-18T03:16:29;10.48;;;0.90;;
41711;SDS011;27399;51.516;13.670;2023-02-18T03:21:52;11.27;;;1.27;;
41711;SDS011;27399;51.516;13.670;2023-02-18T03:27:06;3.58;;;0.98;;
41711;SDS011;27399;51.516;13.670;2023-02-18T03:29:38;2.85;;;0.70;;
41711;SDS011;27399;51.516;13.670;2023-02-18T03:32:07;2.00;;;0.82;;
41711;SDS011;27399;51.516;13.670;2023-02-18T03:34:37;6.05;;;1.10;;
41711;SDS011;27399;51.516;13.670;2023-02-18T03:37:08;5.50;;;1.20;;
41711;SDS011;27399;51.516;13.670;2023-02-18T03:39:36;2.30;;;0.63;;
41711;SDS011;27399;51.516;13.670;2023-02-18T03:42:05;3.80;;;0.70;;
41711;SDS011;27399;51.516;13.670;2023-02-18T03:44:31;2.45;;;0.70;;
41711;SDS011;27399;51.516;13.670;2023-02-18T03:46:57;3.00;;;0.73;;
41711;SDS011;27399;51.516;13.670;2023-02-18T03:49:22;8.23;;;1.00;;
41711;SDS011;27399;51.516;13.670;2023-02-18T03:51:48;4.07;;;0.73;;
41711;SDS011;27399;51.516;13.670;2023-02-18T03:54:14;4.53;;;1.10;;
41711;SDS011;27399;51.516;13.670;2023-02-18T03:56:40;2.25;;;0.60;;
41711;SDS011;27399;51.516;13.670;2023-02-18T03:59:06;2.33;;;0.73;;
41711;SDS011;27399;51.516;13.670;2023-02-18T04:01:32;2.78;;;0.80;;
41711;SDS011;27399;51.516;13.670;2023-02-18T04:03:58;5.57;;;0.95;;
41711;SDS011;27399;51.516;13.670;2023-02-18T04:06:23;4.05;;;0.90;;
41711;SDS011;27399;51.516;13.670;2023-02-18T04:08:49;3.28;;;0.60;;
41711;SDS011;27399;51.516;13.670;2023-02-18T04:11:16;5.78;;;0.75;;
41711;SDS011;27399;51.516;13.670;2023-02-18T04:13:42;3.28;;;0.63;;
41711;SDS011;27399;51.516;13.670;2023-02-18T04:16:08;4.45;;;1.02;;
41711;SDS011;27399;51.516;13.670;2023-02-18T04:18:33;6.65;;;1.05;;
41711;SDS011;27399;51.516;13.670;2023-02-18T04:20:59;3.08;;;0.60;;
41711;SDS011;27399;51.516;13.670;2023-02-18T04:23:24;3.38;;;1.38;;
41711;SDS011;27399;51.516;13.670;2023-02-18T04:25:50;5.95;;;0.98;;
41711;SDS011;27399;51.516;13.670;2023-02-18T04:28:16;8.57;;;1.08;;
41711;SDS011;27399;51.516;13.670;2023-02-18T04:30:42;4.03;;;0.70;;
41711;SDS011;27399;51.516;13.670;2023-02-18T04:33:09;2.80;;;0.75;;
41711;SDS011;27399;51.516;13.670;2023-02-18T04:35:35;3.65;;;0.95;;
41711;SDS011;27399;51.516;13.670;2023-02-18T04:38:01;3.13;;;0.85;;
41711;SDS011;27399;51.516;13.670;2023-02-18T04:40:27;3.15;;;0.98;;
41711;SDS011;27399;51.516;13.670;2023-02-18T04:42:55;3.13;;;0.77;;
41711;SDS011;27399;51.516;13.670;2023-02-18T04:45:22;6.25;;;0.82;;
41711;SDS011;27399;51.516;13.670;2023-02-18T04:47:48;5.78;;;0.60;;
41711;SDS011;27399;51.516;13.670;2023-02-18T04:50:14;6.45;;;1.30;;
41711;SDS011;27399;51.516;13.670;2023-02-18T04:52:39;7.88;;;1.05;;
41711;SDS011;27399;51.516;13.670;2023-02-18T04:55:05;7.70;;;0.90;;
41711;SDS011;27399;51.516;13.670;2023-02-18T04:57:32;3.78;;;0.90;;
41711;SDS011;27399;51.516;13.670;2023-02-18T04:59:57;5.22;;;1.08;;
41711;SDS011;27399;51.516;13.670;2023-02-18T05:02:23;2.05;;;0.68;;
41711;SDS011;27399;51.516;13.670;2023-02-18T05:04:49;4.80;;;0.82;;
41711;SDS011;27399;51.516;13.670;2023-02-18T05:07:14;3.00;;;0.77;;
41711;SDS011;27399;51.516;13.670;2023-02-18T05:09:40;5.18;;;0.85;;
41711;SDS011;27399;51.516;13.670;2023-02-18T05:12:06;5.93;;;0.93;;
41711;SDS011;27399;51.516;13.670;2023-02-18T05:14:32;5.65;;;1.25;;
41711;SDS011;27399;51.516;13.670;2023-02-18T05:16:57;5.20;;;1.08;;
41711;SDS011;27399;51.516;13.670;2023-02-18T05:19:23;4.93;;;1.25;;
41711;SDS011;27399;51.516;13.670;2023-02-18T05:21:49;5.95;;;1.42;;
41711;SDS011;27399;51.516;13.670;2023-02-18T05:24:14;9.15;;;1.77;;
41711;SDS011;27399;51.516;13.670;2023-02-18T05:26:40;5.63;;;1.73;;
41711;SDS011;27399;51.516;13.670;2023-02-18T05:29:05;5.72;;;1.20;;
41711;SDS011;27399;51.516;13.670;2023-02-18T05:31:31;5.25;;;1.13;;
41711;SDS011;27399;51.516;13.670;2023-02-18T05:33:57;14.02;;;1.70;;
41711;SDS011;27399;51.516;13.670;2023-02-18T05:36:23;8.13;;;1.00;;
41711;SDS011;27399;51.516;13.670;2023-02-18T05:38:48;4.55;;;1.20;;
41711;SDS011;27399;51.516;13.670;2023-02-18T05:41:14;7.88;;;1.33;;
41711;SDS011;27399;51.516;13.670;2023-02-18T05:43:40;8.00;;;1.15;;
41711;SDS011;27399;51.516;13.670;2023-02-18T05:46:24;4.85;;;1.30;;
41711;SDS011;27399;51.516;13.670;2023-02-18T05:48:49;8.43;;;1.27;;
41711;SDS011;27399;51.516;13.670;2023-02-18T05:51:15;7.03;;;1.10;;
41711;SDS011;27399;51.516;13.670;2023-02-18T05:53:41;12.38;;;1.60;;
41711;SDS011;27399;51.516;13.670;2023-02-18T05:56:06;7.05;;;1.88;;
41711;SDS011;27399;51.516;13.670;2023-02-18T05:58:32;8.60;;;1.40;;
41711;SDS011;27399;51.516;13.670;2023-02-18T06:00:58;10.50;;;1.92;;
41711;SDS011;27399;51.516;13.670;2023-02-18T06:03:23;7.18;;;1.85;;
41711;SDS011;27399;51.516;13.670;2023-02-18T06:05:49;6.35;;;1.50;;
41711;SDS011;27399;51.516;13.670;2023-02-18T06:08:15;7.85;;;2.25;;
41711;SDS011;27399;51.516;13.670;2023-02-18T06:10:41;15.77;;;2.42;;
41711;SDS011;27399;51.516;13.670;2023-02-18T06:13:06;5.88;;;1.20;;
41711;SDS011;27399;51.516;13.670;2023-02-18T06:15:32;8.25;;;1.45;;
41711;SDS011;27399;51.516;13.670;2023-02-18T06:17:58;9.05;;;1.27;;
41711;SDS011;27399;51.516;13.670;2023-02-18T06:20:23;8.75;;;1.83;;
41711;SDS011;27399;51.516;13.670;2023-02-18T06:22:49;5.30;;;1.33;;
41711;SDS011;27399;51.516;13.670;2023-02-18T06:25:14;7.70;;;1.25;;
41711;SDS011;27399;51.516;13.670;2023-02-18T06:27:40;8.77;;;1.50;;
41711;SDS011;27399;51.516;13.670;2023-02-18T06:30:06;12.50;;;1.80;;
41711;SDS011;27399;51.516;13.670;2023-02-18T06:32:32;3.75;;;1.30;;
41711;SDS011;27399;51.516;13.670;2023-02-18T06:34:58;7.50;;;1.42;;
41711;SDS011;27399;51.516;13.670;2023-02-18T06:37:24;8.02;;;1.80;;
41711;SDS011;27399;51.516;13.670;2023-02-18T06:39:49;6.75;;;1.58;;
41711;SDS011;27399;51.516;13.670;2023-02-18T06:42:15;12.55;;;2.28;;
41711;SDS011;27399;51.516;13.670;2023-02-18T06:44:40;9.57;;;1.98;;
41711;SDS011;27399;51.516;13.670;2023-02-18T06:47:06;5.03;;;1.20;;
41711;SDS011;27399;51.516;13.670;2023-02-18T06:49:32;11.25;;;2.35;;
41711;SDS011;27399;51.516;13.670;2023-02-18T06:51:57;17.65;;;1.70;;
41711;SDS011;27399;51.516;13.670;2023-02-18T06:54:23;13.05;;;2.40;;
41711;SDS011;27399;51.516;13.670;2023-02-18T06:56:49;13.73;;;2.10;;
41711;SDS011;27399;51.516;13.670;2023-02-18T06:59:15;7.63;;;2.00;;
41711;SDS011;27399;51.516;13.670;2023-02-18T07:01:41;10.38;;;2.10;;
41711;SDS011;27399;51.516;13.670;2023-02-18T07:04:07;6.15;;;1.67;;
41711;SDS011;27399;51.516;13.670;2023-02-18T07:06:33;9.57;;;1.52;;
41711;SDS011;27399;51.516;13.670;2023-02-18T07:08:58;8.43;;;1.70;;
41711;SDS011;27399;51.516;13.670;2023-02-18T07:11:24;4.43;;;1.73;;
41711;SDS011;27399;51.516;13.670;2023-02-18T07:13:50;8.68;;;1.85;;
41711;SDS011;27399;51.516;13.670;2023-02-18T07:16:15;9.70;;;2.45;;
41711;SDS011;27399;51.516;13.670;2023-02-18T07:18:41;13.50;;;2.90;;
41711;SDS011;27399;51.516;13.670;2023-02-18T07:21:07;11.45;;;1.83;;
41711;SDS011;27399;51.516;13.670;2023-02-18T07:23:32;18.25;;;2.78;;
41711;SDS011;27399;51.516;13.670;2023-02-18T07:26:05;10.15;;;2.08;;
41711;SDS011;27399;51.516;13.670;2023-02-18T07:28:31;9.60;;;2.20;;
41711;SDS011;27399;51.516;13.670;2023-02-18T07:30:57;10.38;;;2.20;;
41711;SDS011;27399;51.516;13.670;2023-02-18T07:33:23;7.47;;;1.83;;
41711;SDS011;27399;51.516;13.670;2023-02-18T07:35:53;15.77;;;2.45;;
41711;SDS011;27399;51.516;13.670;2023-02-18T07:38:20;11.32;;;2.80;;
41711;SDS011;27399;51.516;13.670;2023-02-18T07:40:45;6.50;;;2.65;;
41711;SDS011;27399;51.516;13.670;2023-02-18T07:43:11;8.35;;;2.20;;
41711;SDS011;27399;51.516;13.670;2023-02-18T07:45:37;16.42;;;2.53;;
41711;SDS011;27399;51.516;13.670;2023-02-18T07:48:03;10.18;;;2.30;;
41711;SDS011;27399;51.516;13.670;2023-02-18T07:50:29;21.17;;;3.45;;
41711;SDS011;27399;51.516;13.670;2023-02-18T07:52:59;13.63;;;2.55;;
41711;SDS011;27399;51.516;13.670;2023-02-18T07:55:25;8.60;;;2.72;;
41711;SDS011;27399;51.516;13.670;2023-02-18T07:58:17;17.98;;;2.78;;
41711;SDS011;27399;51.516;13.670;2023-02-18T08:00:43;5.97;;;2.20;;
41711;SDS011;27399;51.516;13.670;2023-02-18T08:03:08;11.90;;;2.78;;
41711;SDS011;27399;51.516;13.670;2023-02-18T08:05:34;11.18;;;2.33;;
41711;SDS011;27399;51.516;13.670;2023-02-18T08:08:00;9.93;;;2.20;;
41711;SDS011;27399;51.516;13.670;2023-02-18T08:10:25;14.88;;;2.72;;
41711;SDS011;27399;51.516;13.670;2023-02-18T08:12:51;12.57;;;2.78;;
41711;SDS011;27399;51.516;13.670;2023-02-18T08:15:16;15.77;;;2.92;;
41711;SDS011;27399;51.516;13.670;2023-02-18T08:17:42;10.40;;;3.05;;
41711;SDS011;27399;51.516;13.670;2023-02-18T08:20:08;16.40;;;3.33;;
41711;SDS011;27399;51.516;13.670;2023-02-18T08:22:34;12.98;;;3.30;;
41711;SDS011;27399;51.516;13.670;2023-02-18T08:25:00;16.65;;;3.00;;
41711;SDS011;27399;51.516;13.670;2023-02-18T08:27:25;18.67;;;3.20;;
41711;SDS011;27399;51.516;13.670;2023-02-18T08:29:51;20.08;;;3.47;;
41711;SDS011;27399;51.516;13.670;2023-02-18T08:32:17;13.73;;;2.80;;
41711;SDS011;27399;51.516;13.670;2023-02-18T08:34:43;11.15;;;2.58;;
41711;SDS011;27399;51.516;13.670;2023-02-18T08:37:08;13.18;;;3.03;;
41711;SDS011;27399;51.516;13.670;2023-02-18T08:39:35;17.63;;;2.70;;
41711;SDS011;27399;51.516;13.670;2023-02-18T08:42:02;12.18;;;2.35;;
41711;SDS011;27399;51.516;13.670;2023-02-18T08:44:28;20.17;;;3.88;;
41711;SDS011;27399;51.516;13.670;2023-02-18T08:46:54;20.00;;;3.30;;
41711;SDS011;27399;51.516;13.670;2023-02-18T08:49:19;13.15;;;3.33;;
41711;SDS011;27399;51.516;13.670;2023-02-18T08:51:49;14.65;;;3.05;;
41711;SDS011;27399;51.516;13.670;2023-02-18T08:54:15;11.02;;;3.40;;
41711;SDS011;27399;51.516;13.670;2023-02-18T08:56:41;12.23;;;2.85;;
41711;SDS011;27399;51.516;13.670;2023-02-18T08:59:07;13.00;;;3.28;;
41711;SDS011;27399;51.516;13.670;2023-02-18T09:01:33;10.60;;;3.15;;
41711;SDS011;27399;51.516;13.670;2023-02-18T09:03:58;15.45;;;3.05;;
41711;SDS011;27399;51.516;13.670;2023-02-18T09:06:24;12.15;;;3.17;;
41711;SDS011;27399;51.516;13.670;2023-02-18T09:08:50;7.00;;;2.90;;
41711;SDS011;27399;51.516;13.670;2023-02-18T09:11:16;17.30;;;3.78;;
41711;SDS011;27399;51.516;13.670;2023-02-18T09:13:42;15.63;;;2.90;;
41711;SDS011;27399;51.516;13.670;2023-02-18T09:16:10;12.10;;;2.85;;
41711;SDS011;27399;51.516;13.670;2023-02-18T09:18:38;12.50;;;3.67;;
41711;SDS011;27399;51.516;13.670;2023-02-18T09:21:04;15.32;;;3.72;;
41711;SDS011;27399;51.516;13.670;2023-02-18T09:23:32;14.25;;;4.05;;
41711;SDS011;27399;51.516;13.670;2023-02-18T09:25:58;15.02;;;3.10;;
41711;SDS011;27399;51.516;13.670;2023-02-18T09:28:24;11.30;;;3.40;;
41711;SDS011;27399;51.516;13.670;2023-02-18T09:30:51;13.18;;;3.45;;
41711;SDS011;27399;51.516;13.670;2023-02-18T09:33:17;11.38;;;3.20;;
41711;SDS011;27399;51.516;13.670;2023-02-18T09:35:44;6.65;;;2.83;;
41711;SDS011;27399;51.516;13.670;2023-02-18T09:38:11;10.32;;;3.63;;
41711;SDS011;27399;51.516;13.670;2023-02-18T09:40:43;8.70;;;3.80;;
41711;SDS011;27399;51.516;13.670;2023-02-18T09:43:28;10.23;;;3.90;;
41711;SDS011;27399;51.516;13.670;2023-02-18T09:45:57;11.80;;;3.55;;
41711;SDS011;27399;51.516;13.670;2023-02-18T09:48:28;12.45;;;3.90;;
41711;SDS011;27399;51.516;13.670;2023-02-18T09:51:00;10.57;;;3.95;;
41711;SDS011;27399;51.516;13.670;2023-02-18T09:53:26;8.35;;;4.07;;
41711;SDS011;27399;51.516;13.670;2023-02-18T09:55:53;6.80;;;3.33;;
41711;SDS011;27399;51.516;13.670;2023-02-18T10:03:31;12.75;;;4.20;;
41711;SDS011;27399;51.516;13.670;2023-02-18T10:06:01;11.52;;;4.85;;
41711;SDS011;27399;51.516;13.670;2023-02-18T10:08:32;18.23;;;5.30;;
41711;SDS011;27399;51.516;13.670;2023-02-18T10:11:01;15.15;;;5.70;;
41711;SDS011;27399;51.516;13.670;2023-02-18T10:13:29;16.92;;;5.85;;
41711;SDS011;27399;51.516;13.670;2023-02-18T10:15:56;19.65;;;6.55;;
41711;SDS011;27399;51.516;13.670;2023-02-18T10:18:26;14.40;;;6.05;;
41711;SDS011;27399;51.516;13.670;2023-02-18T10:21:00;17.65;;;5.55;;
41711;SDS011;27399;51.516;13.670;2023-02-18T10:23:40;16.38;;;5.75;;
41711;SDS011;27399;51.516;13.670;2023-02-18T10:26:14;19.38;;;6.28;;
41711;SDS011;27399;51.516;13.670;2023-02-18T10:28:42;13.02;;;6.28;;
41711;SDS011;27399;51.516;13.670;2023-02-18T10:31:09;20.67;;;7.22;;
41711;SDS011;27399;51.516;13.670;2023-02-18T10:34:16;20.73;;;5.93;;
41711;SDS011;27399;51.516;13.670;2023-02-18T10:39:09;12.88;;;4.45;;
41711;SDS011;27399;51.516;13.670;2023-02-18T10:52:33;15.85;;;6.13;;
41711;SDS011;27399;51.516;13.670;2023-02-18T10:55:08;15.32;;;6.78;;
41711;SDS011;27399;51.516;13.670;2023-02-18T10:57:46;18.25;;;6.53;;
41711;SDS011;27399;51.516;13.670;2023-02-18T11:00:15;13.88;;;6.47;;
41711;SDS011;27399;51.516;13.670;2023-02-18T11:02:43;15.23;;;6.75;;
41711;SDS011;27399;51.516;13.670;2023-02-18T11:05:22;23.27;;;7.82;;
41711;SDS011;27399;51.516;13.670;2023-02-18T11:07:51;18.73;;;6.65;;
41711;SDS011;27399;51.516;13.670;2023-02-18T11:10:34;16.35;;;7.43;;
41711;SDS011;27399;51.516;13.670;2023-02-18T11:13:07;13.57;;;6.90;;
41711;SDS011;27399;51.516;13.670;2023-02-18T11:15:35;22.35;;;7.15;;
41711;SDS011;27399;51.516;13.670;2023-02-18T11:18:12;19.92;;;8.65;;
41711;SDS011;27399;51.516;13.670;2023-02-18T11:20:54;14.45;;;6.90;;
41711;SDS011;27399;51.516;13.670;2023-02-18T11:23:22;17.10;;;7.43;;
41711;SDS011;27399;51.516;13.670;2023-02-18T11:25:56;17.17;;;7.63;;
41711;SDS011;27399;51.516;13.670;2023-02-18T11:28:26;12.98;;;6.55;;
41711;SDS011;27399;51.516;13.670;2023-02-18T11:31:06;15.00;;;6.30;;
41711;SDS011;27399;51.516;13.670;2023-02-18T11:33:36;18.27;;;6.82;;
41711;SDS011;27399;51.516;13.670;2023-02-18T11:38:52;12.80;;;5.00;;
41711;SDS011;27399;51.516;13.670;2023-02-18T11:41:30;8.20;;;4.40;;
41711;SDS011;27399;51.516;13.670;2023-02-18T11:43:59;6.13;;;3.30;;
41711;SDS011;27399;51.516;13.670;2023-02-18T11:46:27;11.15;;;3.47;;
41711;SDS011;27399;51.516;13.670;2023-02-18T11:48:53;5.65;;;2.70;;
41711;SDS011;27399;51.516;13.670;2023-02-18T11:51:24;5.50;;;1.88;;
41711;SDS011;27399;51.516;13.670;2023-02-18T11:53:59;3.33;;;1.77;;
41711;SDS011;27399;51.516;13.670;2023-02-18T11:56:28;4.05;;;1.52;;
41711;SDS011;27399;51.516;13.670;2023-02-18T11:58:56;1.42;;;1.05;;
41711;SDS011;27399;51.516;13.670;2023-02-18T12:04:04;1.17;;;0.90;;
41711;SDS011;27399;51.516;13.670;2023-02-18T12:06:37;1.80;;;1.20;;
41711;SDS011;27399;51.516;13.670;2023-02-18T12:09:26;1.35;;;1.10;;
41711;SDS011;27399;51.516;13.670;2023-02-18T12:12:04;1.98;;;0.85;;
41711;SDS011;27399;51.516;13.670;2023-02-18T12:14:36;0.57;;;0.50;;
41711;SDS011;27399;51.516;13.670;2023-02-18T12:31:03;0.60;;;0.40;;
41711;SDS011;27399;51.516;13.670;2023-02-18T12:33:58;0.60;;;0.50;;
41711;SDS011;27399;51.516;13.670;2023-02-18T12:50:27;0.30;;;0.30;;
41711;SDS011;27399;51.516;13.670;2023-02-18T12:58:36;0.50;;;0.40;;
41711;SDS011;27399;51.516;13.670;2023-02-18T13:04:18;1.15;;;0.30;;
41711;SDS011;27399;51.516;13.670;2023-02-18T13:12:38;1.95;;;0.22;;
41711;SDS011;27399;51.516;13.670;2023-02-18T13:17:59;0.35;;;0.30;;
41711;SDS011;27399;51.516;13.670;2023-02-18T13:22:55;0.50;;;0.35;;
41711;SDS011;27399;51.516;13.670;2023-02-18T13:25:21;0.30;;;0.20;;
41711;SDS011;27399;51.516;13.670;2023-02-18T13:33:28;0.45;;;0.40;;
41711;SDS011;27399;51.516;13.670;2023-02-18T13:36:11;0.32;;;0.22;;
41711;SDS011;27399;51.516;13.670;2023-02-18T13:38:57;0.38;;;0.30;;
41711;SDS011;27399;51.516;13.670;2023-02-18T13:41:27;0.52;;;0.30;;
41711;SDS011;27399;51.516;13.670;2023-02-18T13:43:53;0.40;;;0.40;;
41711;SDS011;27399;51.516;13.670;2023-02-18T13:46:19;0.80;;;0.40;;
41711;SDS011;27399;51.516;13.670;2023-02-18T13:51:28;1.40;;;0.40;;
41711;SDS011;27399;51.516;13.670;2023-02-18T13:53:59;2.67;;;0.52;;
41711;SDS011;27399;51.516;13.670;2023-02-18T13:56:43;0.80;;;0.50;;
41711;SDS011;27399;51.516;13.670;2023-02-18T13:59:24;0.63;;;0.47;;
41711;SDS011;27399;51.516;13.670;2023-02-18T14:04:52;0.57;;;0.30;;
41711;SDS011;27399;51.516;13.670;2023-02-18T14:10:00;0.82;;;0.60;;
41711;SDS011;27399;51.516;13.670;2023-02-18T14:23:37;0.95;;;0.52;;
41711;SDS011;27399;51.516;13.670;2023-02-18T14:25:49;0.52;;;0.50;;
41711;SDS011;27399;51.516;13.670;2023-02-18T14:31:48;0.40;;;0.40;;
41711;SDS011;27399;51.516;13.670;2023-02-18T14:50:20;1.10;;;0.50;;
41711;SDS011;27399;51.516;13.670;2023-02-18T14:52:48;1.42;;;0.45;;
41711;SDS011;27399;51.516;13.670;2023-02-18T15:02:00;0.90;;;0.50;;
41711;SDS011;27399;51.516;13.670;2023-02-18T15:04:26;1.10;;;0.65;;
41711;SDS011;27399;51.516;13.670;2023-02-18T15:07:02;0.65;;;0.45;;
41711;SDS011;27399;51.516;13.670;2023-02-18T15:09:30;1.58;;;0.60;;
41711;SDS011;27399;51.516;13.670;2023-02-18T15:12:00;0.68;;;0.40;;
41711;SDS011;27399;51.516;13.670;2023-02-18T15:14:31;1.65;;;0.60;;
41711;SDS011;27399;51.516;13.670;2023-02-18T15:17:03;0.75;;;0.47;;
41711;SDS011;27399;51.516;13.670;2023-02-18T15:20:13;0.82;;;0.45;;
41711;SDS011;27399;51.516;13.670;2023-02-18T15:22:22;1.13;;;0.70;;
41711;SDS011;27399;51.516;13.670;2023-02-18T15:24:51;1.05;;;0.40;;
41711;SDS011;27399;51.516;13.670;2023-02-18T15:27:37;0.50;;;0.50;;
41711;SDS011;27399;51.516;13.670;2023-02-18T15:32:54;1.65;;;0.73;;
41711;SDS011;27399;51.516;13.670;2023-02-18T15:35:22;1.15;;;0.60;;
41711;SDS011;27399;51.516;13.670;2023-02-18T15:37:55;1.40;;;0.52;;
41711;SDS011;27399;51.516;13.670;2023-02-18T15:40:24;1.90;;;0.65;;
41711;SDS011;27399;51.516;13.670;2023-02-18T15:43:02;1.15;;;0.70;;
41711;SDS011;27399;51.516;13.670;2023-02-18T15:45:37;2.05;;;0.50;;
41711;SDS011;27399;51.516;13.670;2023-02-18T15:48:05;0.73;;;0.70;;
41711;SDS011;27399;51.516;13.670;2023-02-18T15:50:36;1.08;;;0.60;;
41711;SDS011;27399;51.516;13.670;2023-02-18T15:53:13;0.80;;;0.52;;
41711;SDS011;27399;51.516;13.670;2023-02-18T15:55:41;2.00;;;0.47;;
41711;SDS011;27399;51.516;13.670;2023-02-18T15:58:11;1.67;;;0.43;;
41711;SDS011;27399;51.516;13.670;2023-02-18T16:00:46;1.20;;;0.50;;
41711;SDS011;27399;51.516;13.670;2023-02-18T16:03:21;1.00;;;0.40;;
41711;SDS011;27399;51.516;13.670;2023-02-18T16:06:11;1.52;;;0.50;;
41711;SDS011;27399;51.516;13.670;2023-02-18T16:08:54;1.10;;;0.57;;
41711;SDS011;27399;51.516;13.670;2023-02-18T16:11:25;1.88;;;0.50;;
41711;SDS011;27399;51.516;13.670;2023-02-18T16:13:55;4.65;;;0.40;;
41711;SDS011;27399;51.516;13.670;2023-02-18T16:16:27;0.52;;;0.50;;
41711;SDS011;27399;51.516;13.670;2023-02-18T16:18:58;2.58;;;0.50;;
41711;SDS011;27399;51.516;13.670;2023-02-18T16:21:43;1.25;;;0.63;;
41711;SDS011;27399;51.516;13.670;2023-02-18T16:24:28;1.05;;;0.50;;
41711;SDS011;27399;51.516;13.670;2023-02-18T16:26:57;1.33;;;0.60;;
41711;SDS011;27399;51.516;13.670;2023-02-18T16:29:26;4.03;;;0.90;;
41711;SDS011;27399;51.516;13.670;2023-02-18T16:32:00;1.00;;;0.40;;
41711;SDS011;27399;51.516;13.670;2023-02-18T16:34:25;1.23;;;0.60;;
41711;SDS011;27399;51.516;13.670;2023-02-18T16:36:52;0.70;;;0.47;;
41711;SDS011;27399;51.516;13.670;2023-02-18T16:39:36;1.13;;;0.45;;
41711;SDS011;27399;51.516;13.670;2023-02-18T16:42:04;0.68;;;0.60;;
41711;SDS011;27399;51.516;13.670;2023-02-18T16:44:33;1.08;;;0.60;;
41711;SDS011;27399;51.516;13.670;2023-02-18T16:46:58;0.60;;;0.50;;
41711;SDS011;27399;51.516;13.670;2023-02-18T16:49:24;2.42;;;0.60;;
41711;SDS011;27399;51.516;13.670;2023-02-18T16:51:49;2.55;;;0.57;;
41711;SDS011;27399;51.516;13.670;2023-02-18T16:54:15;0.93;;;0.68;;
41711;SDS011;27399;51.516;13.670;2023-02-18T16:56:41;2.17;;;0.70;;
41711;SDS011;27399;51.516;13.670;2023-02-18T16:59:07;1.55;;;0.40;;
41711;SDS011;27399;51.516;13.670;2023-02-18T17:01:33;2.10;;;0.60;;
41711;SDS011;27399;51.516;13.670;2023-02-18T17:04:05;1.10;;;0.60;;
41711;SDS011;27399;51.516;13.670;2023-02-18T17:06:34;5.10;;;0.70;;
41711;SDS011;27399;51.516;13.670;2023-02-18T17:09:00;0.70;;;0.50;;
41711;SDS011;27399;51.516;13.670;2023-02-18T17:13:56;1.13;;;0.60;;
41711;SDS011;27399;51.516;13.670;2023-02-18T17:16:23;1.33;;;1.15;;
41711;SDS011;27399;51.516;13.670;2023-02-18T17:18:49;1.15;;;0.70;;
41711;SDS011;27399;51.516;13.670;2023-02-18T17:21:16;1.10;;;0.63;;
41711;SDS011;27399;51.516;13.670;2023-02-18T17:23:43;1.55;;;0.60;;
41711;SDS011;27399;51.516;13.670;2023-02-18T17:26:14;0.95;;;0.70;;